Time,TemperatureF,DewpointF,PressureIn,WindDirection,WindDirectionDegrees,WindSpeedMPH,WindSpeedGustMPH,Humidity,HourlyPrecipIn,Conditions,Clouds,dailyrainin,SoftwareType,DateUTC
2013-05-06 00:07:00,56.0,48.0,29.93,NE,51,0.0,-999.0,75,-99.99,,,0.00,weatherlink.com 1.10,2013-05-06 05:07:00,
2013-05-06 00:22:00,55.5,48.0,29.93,NE,51,0.0,-999.0,76,-99.99,,,0.00,weatherlink.com 1.10,2013-05-06 05:22:00,
2013-05-06 00:38:00,54.8,48.0,29.93,NE,51,0.0,-999.0,77,-99.99,,,0.00,weatherlink.com 1.10,2013-05-06 05:38:00,
2013-05-06 00:53:00,54.5,48.0,29.93,NE,51,0.0,-999.0,79,-99.99,,,0.00,weatherlink.com 1.10,2013-05-06 05:53:00,
2013-05-06 01:08:00,54.3,48.0,29.93,NE,51,0.0,-999.0,80,-99.99,,,0.00,weatherlink.com 1.10,2013-05-06 06:08:00,
2013-05-06 01:23:00,53.8,48.0,29.93,NE,51,0.0,-999.0,80,-99.99,,,0.00,weatherlink.com 1.10,2013-05-06 06:23:00,
2013-05-06 01:38:00,53.6,48.0,29.93,NE,51,0.0,-999.0,81,-99.99,,,0.00,weatherlink.com 1.10,2013-05-06 06:38:00,
2013-05-06 01:53:00,53.3,48.0,29.93,NE,51,0.0,-999.0,81,-99.99,,,0.00,weatherlink.com 1.10,2013-05-06 06:53:00,
2013-05-06 02:08:00,52.9,48.0,29.93,NE,51,0.0,-999.0,82,-99.99,,,0.00,weatherlink.com 1.10,2013-05-06 07:08:00,
2013-05-06 02:23:00,52.6,48.0,29.93,NE,51,0.0,-999.0,83,-99.99,,,0.00,weatherlink.com 1.10,2013-05-06 07:23:00,
2013-05-06 02:38:00,52.4,47.0,29.92,NE,51,0.0,-999.0,83,-99.99,,,0.00,weatherlink.com 1.10,2013-05-06 07:38:00,
2013-05-06 02:53:00,52.4,48.0,29.92,NW,304,1.0,-999.0,84,-99.99,,,0.00,weatherlink.com 1.10,2013-05-06 07:53:00,
2013-05-06 03:08:00,52.1,47.0,29.92,NW,304,0.0,-999.0,84,-99.99,,,0.00,weatherlink.com 1.10,2013-05-06 08:08:00,
2013-05-06 03:23:00,51.8,47.0,29.92,NW,304,0.0,-999.0,84,-99.99,,,0.00,weatherlink.com 1.10,2013-05-06 08:23:00,
2013-05-06 03:38:00,51.7,47.0,29.91,NW,304,0.0,-999.0,85,-99.99,,,0.00,weatherlink.com 1.10,2013-05-06 08:38:00,
2013-05-06 03:53:00,51.5,47.0,29.91,NW,304,0.0,-999.0,85,-99.99,,,0.00,weatherlink.com 1.10,2013-05-06 08:53:00,
2013-05-06 04:08:00,51.2,47.0,29.91,NW,304,1.0,-999.0,85,-99.99,,,0.00,weatherlink.com 1.10,2013-05-06 09:08:00,
2013-05-06 04:23:00,51.0,47.0,29.91,NW,304,0.0,-999.0,86,-99.99,,,0.00,weatherlink.com 1.10,2013-05-06 09:23:00,
2013-05-06 04:38:00,50.7,47.0,29.91,NW,304,0.0,-999.0,86,-99.99,,,0.00,weatherlink.com 1.10,2013-05-06 09:38:00,
2013-05-06 04:53:00,50.4,46.0,29.91,NW,304,0.0,-999.0,86,-99.99,,,0.00,weatherlink.com 1.10,2013-05-06 09:53:00,
2013-05-06 05:08:00,50.2,47.0,29.92,NW,304,0.0,-999.0,87,-99.99,,,0.00,weatherlink.com 1.10,2013-05-06 10:08:00,
2013-05-06 05:24:00,49.9,46.0,29.92,NW,304,0.0,-999.0,87,-99.99,,,0.00,weatherlink.com 1.10,2013-05-06 10:24:00,
2013-05-06 05:38:00,49.6,46.0,29.92,NW,304,0.0,-999.0,87,-99.99,,,0.00,weatherlink.com 1.10,2013-05-06 10:38:00,
2013-05-06 05:53:00,49.5,46.0,29.92,NW,304,1.0,-999.0,88,-99.99,,,0.00,weatherlink.com 1.10,2013-05-06 10:53:00,
2013-05-06 06:08:00,49.5,46.0,29.92,NW,304,0.0,-999.0,88,-99.99,,,0.00,weatherlink.com 1.10,2013-05-06 11:08:00,
2013-05-06 06:23:00,49.4,46.0,29.93,NW,304,0.0,-999.0,88,-99.99,,,0.00,weatherlink.com 1.10,2013-05-06 11:23:00,
2013-05-06 06:38:00,49.6,46.0,29.93,NW,304,0.0,-999.0,88,-99.99,,,0.00,weatherlink.com 1.10,2013-05-06 11:38:00,
2013-05-06 06:53:00,49.4,46.0,29.93,NW,304,0.0,-999.0,88,-99.99,,,0.00,weatherlink.com 1.10,2013-05-06 11:53:00,
2013-05-06 07:08:00,49.4,46.0,29.93,NW,304,0.0,-999.0,88,-99.99,,,0.00,weatherlink.com 1.10,2013-05-06 12:08:00,
2013-05-06 07:23:00,49.9,47.0,29.94,NW,304,0.0,-999.0,89,-99.99,,,0.00,weatherlink.com 1.10,2013-05-06 12:23:00,
2013-05-06 07:38:00,51.3,48.0,29.95,NW,304,1.0,-999.0,89,-99.99,,,0.00,weatherlink.com 1.10,2013-05-06 12:38:00,
2013-05-06 07:53:00,53.0,50.0,29.95,NW,304,2.0,-999.0,88,-99.99,,,0.00,weatherlink.com 1.10,2013-05-06 12:53:00,
2013-05-06 08:08:00,55.1,51.0,29.95,NW,304,0.0,-999.0,85,-99.99,,,0.00,weatherlink.com 1.10,2013-05-06 13:08:00,
2013-05-06 08:23:00,57.2,52.0,29.95,WNW,302,0.0,-999.0,82,-99.99,,,0.00,weatherlink.com 1.10,2013-05-06 13:23:00,
2013-05-06 08:38:00,59.0,52.0,29.95,NNW,333,0.0,-999.0,77,-99.99,,,0.00,weatherlink.com 1.10,2013-05-06 13:38:00,
2013-05-06 08:53:00,60.1,52.0,29.95,NNW,346,2.0,-999.0,74,-99.99,,,0.00,weatherlink.com 1.10,2013-05-06 13:53:00,
2013-05-06 09:08:00,62.3,53.0,29.96,NW,306,0.0,-999.0,71,-99.99,,,0.00,weatherlink.com 1.10,2013-05-06 14:08:00,
2013-05-06 09:23:00,64.4,53.0,29.96,North,355,1.0,-999.0,66,-99.99,,,0.00,weatherlink.com 1.10,2013-05-06 14:23:00,
2013-05-06 09:38:00,64.4,52.0,29.95,NNW,333,2.0,-999.0,65,-99.99,,,0.00,weatherlink.com 1.10,2013-05-06 14:38:00,
2013-05-06 09:53:00,65.1,53.0,29.95,NNE,17,0.0,-999.0,64,-99.99,,,0.00,weatherlink.com 1.10,2013-05-06 14:53:00,
2013-05-06 10:08:00,66.1,53.0,29.96,NE,45,2.0,-999.0,62,-99.99,,,0.00,weatherlink.com 1.10,2013-05-06 15:08:00,
2013-05-06 10:24:00,68.1,54.0,29.95,North,5,0.0,-999.0,61,-99.99,,,0.00,weatherlink.com 1.10,2013-05-06 15:24:00,
2013-05-06 10:39:00,67.9,53.0,29.96,North,355,0.0,-999.0,59,-99.99,,,0.00,weatherlink.com 1.10,2013-05-06 15:39:00,
2013-05-06 10:54:00,69.8,54.0,29.96,North,5,2.0,-999.0,58,-99.99,,,0.00,weatherlink.com 1.10,2013-05-06 15:54:00,
2013-05-06 11:09:00,71.3,54.0,29.96,North,349,1.0,-999.0,54,-99.99,,,0.00,weatherlink.com 1.10,2013-05-06 16:09:00,
2013-05-06 11:24:00,70.1,54.0,29.96,North,360,4.0,-999.0,57,-99.99,,,0.00,weatherlink.com 1.10,2013-05-06 16:24:00,
2013-05-06 11:39:00,71.5,55.0,29.96,ENE,78,3.0,-999.0,56,-99.99,,,0.00,weatherlink.com 1.10,2013-05-06 16:39:00,
2013-05-06 11:54:00,70.4,54.0,29.95,NNW,331,3.0,-999.0,56,-99.99,,,0.00,weatherlink.com 1.10,2013-05-06 16:54:00,
2013-05-06 12:09:00,71.6,54.0,29.95,WNW,294,3.0,-999.0,55,-99.99,,,0.00,weatherlink.com 1.10,2013-05-06 17:09:00,
2013-05-06 12:40:00,74.4,55.0,29.93,NNW,343,2.0,-999.0,51,-99.99,,,0.00,weatherlink.com 1.10,2013-05-06 17:40:00,
2013-05-06 12:54:00,72.8,54.0,29.93,East,80,5.0,-999.0,51,-99.99,,,0.00,weatherlink.com 1.10,2013-05-06 17:54:00,
2013-05-06 13:09:00,75.5,55.0,29.92,NNW,337,5.0,-999.0,50,-99.99,,,0.00,weatherlink.com 1.10,2013-05-06 18:09:00,
2013-05-06 13:24:00,75.1,55.0,29.91,NW,318,6.0,-999.0,49,-99.99,,,0.00,weatherlink.com 1.10,2013-05-06 18:24:00,
2013-05-06 13:39:00,75.5,54.0,29.90,North,350,6.0,-999.0,48,-99.99,,,0.00,weatherlink.com 1.10,2013-05-06 18:39:00,
2013-05-06 13:54:00,76.3,55.0,29.90,North,5,7.0,-999.0,48,-99.99,,,0.00,weatherlink.com 1.10,2013-05-06 18:54:00,
2013-05-06 14:09:00,75.6,56.0,29.90,NNE,32,1.0,-999.0,50,-99.99,,,0.00,weatherlink.com 1.10,2013-05-06 19:09:00,
2013-05-06 14:24:00,77.2,55.0,29.90,ENE,59,4.0,-999.0,47,-99.99,,,0.00,weatherlink.com 1.10,2013-05-06 19:24:00,
2013-05-06 14:39:00,76.2,55.0,29.89,North,360,1.0,-999.0,48,-99.99,,,0.00,weatherlink.com 1.10,2013-05-06 19:39:00,
2013-05-06 14:54:00,76.8,56.0,29.88,ESE,113,1.0,-999.0,48,-99.99,,,0.00,weatherlink.com 1.10,2013-05-06 19:54:00,
2013-05-06 15:09:00,77.4,56.0,29.86,ENE,61,2.0,-999.0,48,-99.99,,,0.00,weatherlink.com 1.10,2013-05-06 20:09:00,
2013-05-06 15:24:00,78.1,57.0,29.86,North,360,4.0,-999.0,49,-99.99,,,0.00,weatherlink.com 1.10,2013-05-06 20:24:00,
2013-05-06 15:39:00,76.7,55.0,29.85,NNE,15,0.0,-999.0,47,-99.99,,,0.00,weatherlink.com 1.10,2013-05-06 20:39:00,
2013-05-06 15:54:00,77.4,56.0,29.85,North,9,0.0,-999.0,47,-99.99,,,0.00,weatherlink.com 1.10,2013-05-06 20:54:00,
2013-05-06 16:09:00,77.3,55.0,29.84,NE,44,2.0,-999.0,47,-99.99,,,0.00,weatherlink.com 1.10,2013-05-06 21:09:00,
2013-05-06 16:24:00,77.1,55.0,29.84,NE,38,0.0,-999.0,47,-99.99,,,0.00,weatherlink.com 1.10,2013-05-06 21:24:00,
2013-05-06 16:39:00,77.6,56.0,29.84,North,351,3.0,-999.0,48,-99.99,,,0.00,weatherlink.com 1.10,2013-05-06 21:39:00,
2013-05-06 16:54:00,77.0,56.0,29.84,NNE,21,2.0,-999.0,48,-99.99,,,0.00,weatherlink.com 1.10,2013-05-06 21:54:00,
2013-05-06 17:09:00,77.3,55.0,29.84,NE,56,2.0,-999.0,47,-99.99,,,0.00,weatherlink.com 1.10,2013-05-06 22:09:00,
2013-05-06 17:24:00,76.5,55.0,29.84,NNE,24,1.0,-999.0,47,-99.99,,,0.00,weatherlink.com 1.10,2013-05-06 22:24:00,
2013-05-06 17:39:00,76.4,55.0,29.84,North,5,1.0,-999.0,47,-99.99,,,0.00,weatherlink.com 1.10,2013-05-06 22:39:00,
2013-05-06 17:54:00,76.0,55.0,29.84,North,350,0.0,-999.0,49,-99.99,,,0.00,weatherlink.com 1.10,2013-05-06 22:54:00,
2013-05-06 18:09:00,75.8,55.0,29.84,North,5,1.0,-999.0,48,-99.99,,,0.00,weatherlink.com 1.10,2013-05-06 23:09:00,
2013-05-06 18:24:00,76.1,56.0,29.84,North,360,0.0,-999.0,50,-99.99,,,0.00,weatherlink.com 1.10,2013-05-06 23:24:00,
2013-05-06 18:39:00,75.7,55.0,29.84,North,360,0.0,-999.0,49,-99.99,,,0.00,weatherlink.com 1.10,2013-05-06 23:39:00,
2013-05-06 18:54:00,75.7,55.0,29.84,North,360,1.0,-999.0,49,-99.99,,,0.00,weatherlink.com 1.10,2013-05-06 23:54:00,
2013-05-06 19:09:00,74.9,55.0,29.84,North,360,1.0,-999.0,50,-99.99,,,0.00,weatherlink.com 1.10,2013-05-07 00:09:00,
2013-05-06 19:24:00,74.2,55.0,29.83,North,360,0.0,-999.0,52,-99.99,,,0.00,weatherlink.com 1.10,2013-05-07 00:24:00,
2013-05-06 19:39:00,73.5,55.0,29.83,North,360,0.0,-999.0,53,-99.99,,,0.00,weatherlink.com 1.10,2013-05-07 00:39:00,
2013-05-06 19:56:00,73.3,55.0,29.83,North,360,0.0,-999.0,53,-99.99,,,0.00,weatherlink.com 1.10,2013-05-07 00:56:00,
2013-05-06 20:09:00,73.1,56.0,29.84,North,360,0.0,-999.0,55,-99.99,,,0.00,weatherlink.com 1.10,2013-05-07 01:09:00,
2013-05-06 20:24:00,72.5,56.0,29.83,North,360,0.0,-999.0,56,-99.99,,,0.00,weatherlink.com 1.10,2013-05-07 01:24:00,
2013-05-06 20:39:00,72.1,55.0,29.83,North,360,0.0,-999.0,56,-99.99,,,0.00,weatherlink.com 1.10,2013-05-07 01:39:00,
2013-05-06 20:54:00,71.6,55.0,29.83,North,360,0.0,-999.0,57,-99.99,,,0.00,weatherlink.com 1.10,2013-05-07 01:54:00,
2013-05-06 21:09:00,71.3,56.0,29.84,North,360,0.0,-999.0,58,-99.99,,,0.00,weatherlink.com 1.10,2013-05-07 02:09:00,
2013-05-06 21:24:00,71.0,55.0,29.84,North,360,0.0,-999.0,58,-99.99,,,0.00,weatherlink.com 1.10,2013-05-07 02:24:00,
2013-05-06 21:39:00,70.8,55.0,29.84,SSW,211,0.0,-999.0,57,-99.99,,,0.00,weatherlink.com 1.10,2013-05-07 02:39:00,
2013-05-06 21:54:00,71.0,55.0,29.84,SW,215,0.0,-999.0,57,-99.99,,,0.00,weatherlink.com 1.10,2013-05-07 02:54:00,
2013-05-06 22:09:00,71.0,55.0,29.85,SW,214,0.0,-999.0,58,-99.99,,,0.00,weatherlink.com 1.10,2013-05-07 03:09:00,
2013-05-06 22:24:00,70.6,55.0,29.84,SW,214,0.0,-999.0,58,-99.99,,,0.00,weatherlink.com 1.10,2013-05-07 03:24:00,
2013-05-06 22:39:00,70.2,55.0,29.84,SW,215,0.0,-999.0,59,-99.99,,,0.00,weatherlink.com 1.10,2013-05-07 03:39:00,
2013-05-06 22:54:00,69.7,55.0,29.84,SW,214,0.0,-999.0,60,-99.99,,,0.00,weatherlink.com 1.10,2013-05-07 03:54:00,
2013-05-06 23:09:00,69.1,55.0,29.85,SW,215,0.0,-999.0,62,-99.99,,,0.00,weatherlink.com 1.10,2013-05-07 04:09:00,
2013-05-06 23:24:00,68.3,55.0,29.85,SW,215,0.0,-999.0,63,-99.99,,,0.00,weatherlink.com 1.10,2013-05-07 04:24:00,
2013-05-06 23:39:00,67.5,55.0,29.85,SW,215,0.0,-999.0,65,-99.99,,,0.00,weatherlink.com 1.10,2013-05-07 04:39:00,
2013-05-06 23:54:00,66.8,55.0,29.84,SW,214,0.0,-999.0,67,-99.99,,,0.00,weatherlink.com 1.10,2013-05-07 04:54:00,